Terminal Aerodrome Forecast
Issued by NWS Green Bay, WI

Home | Current Version | Previous Version | Text Only | Print | Product List | Glossary Off
Versions: 1 2 3 4 5 6 7 8 9 10 11 12 13 14 15 16 17 18 19 20 21 22 23 24 25 26 27 28 29 30 31 32 33 34 35 36 37 38

813
FTUS43 KGRB 192343
TAFGRB
TAF
KGRB 192343Z 2000/2024 26008KT P6SM SCT250
     FM200100 22003KT 6SM BR FEW250
     FM200900 23004KT 3SM BR FEW250
      TEMPO 2009/2012 1SM BR
     FM201300 21005KT P6SM FEW250
     FM201700 21008KT P6SM SCT250
     FM202000 19010KT P6SM SCT040 BKN120=

USA.gov is the U.S. government's official web portal to all federal, state and local government web resources and services.